sensor_id;sensor_type;location;lat;lon;timestamp;pressure;altitude;pressure_sealevel;temperature;humidity
74542;BME280;63015;45.378;20.360;2024-02-23T00:01:48;99905.19;;;8.76;63.67
74542;BME280;63015;45.378;20.360;2024-02-23T00:03:48;99900.88;;;8.73;63.36
74542;BME280;63015;45.378;20.360;2024-02-23T00:05:49;99903.47;;;8.78;63.33
74542;BME280;63015;45.378;20.360;2024-02-23T00:07:49;99895.69;;;8.68;63.54
74542;BME280;63015;45.378;20.360;2024-02-23T00:09:50;99896.56;;;8.74;63.75
74542;BME280;63015;45.378;20.360;2024-02-23T00:11:50;99898.28;;;8.75;63.56
74542;BME280;63015;45.378;20.360;2024-02-23T00:13:51;99900.00;;;8.72;63.69
74542;BME280;63015;45.378;20.360;2024-02-23T00:15:51;99890.47;;;8.73;63.63
74542;BME280;63015;45.378;20.360;2024-02-23T00:17:52;99907.78;;;8.76;63.47
74542;BME280;63015;45.378;20.360;2024-02-23T00:19:52;99903.50;;;8.75;63.45
74542;BME280;63015;45.378;20.360;2024-02-23T00:21:53;99905.19;;;8.74;63.57
74542;BME280;63015;45.378;20.360;2024-02-23T00:23:54;99904.34;;;8.74;63.71
74542;BME280;63015;45.378;20.360;2024-02-23T00:25:54;99904.34;;;8.74;63.70
74542;BME280;63015;45.378;20.360;2024-02-23T00:27:54;99900.91;;;8.67;63.60
74542;BME280;63015;45.378;20.360;2024-02-23T00:29:55;99903.50;;;8.75;63.47
74542;BME280;63015;45.378;20.360;2024-02-23T00:31:55;99905.22;;;8.69;63.47
74542;BME280;63015;45.378;20.360;2024-02-23T00:33:56;99897.44;;;8.69;63.51
74542;BME280;63015;45.378;20.360;2024-02-23T00:35:56;99902.63;;;8.65;63.83
74542;BME280;63015;45.378;20.360;2024-02-23T00:37:57;99896.56;;;8.69;63.39
74542;BME280;63015;45.378;20.360;2024-02-23T00:39:57;99901.75;;;8.72;63.28
74542;BME280;63015;45.378;20.360;2024-02-23T00:41:58;99897.44;;;8.65;63.83
74542;BME280;63015;45.378;20.360;2024-02-23T00:43:59;99892.25;;;8.69;63.62
74542;BME280;63015;45.378;20.360;2024-02-23T00:45:59;99888.78;;;8.66;63.54
74542;BME280;63015;45.378;20.360;2024-02-23T00:48:00;99889.63;;;8.71;63.36
74542;BME280;63015;45.378;20.360;2024-02-23T00:50:01;99891.38;;;8.72;63.25
74542;BME280;63015;45.378;20.360;2024-02-23T00:52:02;99893.94;;;8.69;63.26
74542;BME280;63015;45.378;20.360;2024-02-23T00:54:02;99896.56;;;8.69;63.06
74542;BME280;63015;45.378;20.360;2024-02-23T00:56:03;99893.09;;;8.70;63.25
74542;BME280;63015;45.378;20.360;2024-02-23T00:58:04;99893.09;;;8.67;63.16
74542;BME280;63015;45.378;20.360;2024-02-23T01:00:04;99894.81;;;8.72;63.01
74542;BME280;63015;45.378;20.360;2024-02-23T01:02:05;99886.16;;;8.72;63.15
74542;BME280;63015;45.378;20.360;2024-02-23T01:04:06;99891.38;;;8.67;63.23
74542;BME280;63015;45.378;20.360;2024-02-23T01:06:06;99885.31;;;8.62;63.21
74542;BME280;63015;45.378;20.360;2024-02-23T01:08:07;99887.03;;;8.63;63.82
74542;BME280;63015;45.378;20.360;2024-02-23T01:10:07;99893.97;;;8.63;63.70
74542;BME280;63015;45.378;20.360;2024-02-23T01:12:08;99888.78;;;8.64;63.64
74542;BME280;63015;45.378;20.360;2024-02-23T01:14:09;99886.16;;;8.63;63.71
74542;BME280;63015;45.378;20.360;2024-02-23T01:16:10;99880.97;;;8.61;63.67
74542;BME280;63015;45.378;20.360;2024-02-23T01:18:10;99877.50;;;8.64;63.68
74542;BME280;63015;45.378;20.360;2024-02-23T01:20:11;99877.50;;;8.65;63.76
74542;BME280;63015;45.378;20.360;2024-02-23T01:22:11;99874.06;;;8.63;63.79
74542;BME280;63015;45.378;20.360;2024-02-23T01:24:12;99880.09;;;8.64;63.61
74542;BME280;63015;45.378;20.360;2024-02-23T01:26:12;99885.31;;;8.67;63.41
74542;BME280;63015;45.378;20.360;2024-02-23T01:28:13;99883.56;;;8.63;63.48
74542;BME280;63015;45.378;20.360;2024-02-23T01:30:14;99887.06;;;8.62;63.31
74542;BME280;63015;45.378;20.360;2024-02-23T01:32:14;99868.88;;;8.57;63.42
74542;BME280;63015;45.378;20.360;2024-02-23T01:34:15;99863.69;;;8.54;63.25
74542;BME280;63015;45.378;20.360;2024-02-23T01:36:15;99870.56;;;8.63;63.18
74542;BME280;63015;45.378;20.360;2024-02-23T01:38:16;99873.19;;;8.63;63.21
74542;BME280;63015;45.378;20.360;2024-02-23T01:40:20;99872.34;;;8.59;63.29
74542;BME280;63015;45.378;20.360;2024-02-23T01:42:21;99867.13;;;8.56;63.16
74542;BME280;63015;45.378;20.360;2024-02-23T01:44:22;99867.16;;;8.59;63.22
74542;BME280;63015;45.378;20.360;2024-02-23T01:46:22;99871.47;;;8.63;63.02
74542;BME280;63015;45.378;20.360;2024-02-23T01:48:23;99868.84;;;8.66;62.84
74542;BME280;63015;45.378;20.360;2024-02-23T01:50:25;99878.38;;;8.63;62.75
74542;BME280;63015;45.378;20.360;2024-02-23T01:52:26;99868.00;;;8.64;62.83
74542;BME280;63015;45.378;20.360;2024-02-23T01:54:26;99856.75;;;8.62;62.74
74542;BME280;63015;45.378;20.360;2024-02-23T01:56:29;99855.88;;;8.60;62.91
74542;BME280;63015;45.378;20.360;2024-02-23T01:58:30;99869.72;;;8.64;62.97
74542;BME280;63015;45.378;20.360;2024-02-23T02:00:31;99861.06;;;8.63;62.99
74542;BME280;63015;45.378;20.360;2024-02-23T02:02:32;99853.28;;;8.62;62.83
74542;BME280;63015;45.378;20.360;2024-02-23T02:04:33;99868.00;;;8.61;63.24
74542;BME280;63015;45.378;20.360;2024-02-23T02:06:33;99852.41;;;8.61;63.06
74542;BME280;63015;45.378;20.360;2024-02-23T02:08:34;99843.75;;;8.56;63.13
74542;BME280;63015;45.378;20.360;2024-02-23T02:10:35;99857.63;;;8.60;63.04
74542;BME280;63015;45.378;20.360;2024-02-23T02:12:35;99848.09;;;8.63;62.83
74542;BME280;63015;45.378;20.360;2024-02-23T02:14:36;99851.53;;;8.65;62.53
74542;BME280;63015;45.378;20.360;2024-02-23T02:16:36;99844.63;;;8.61;62.68
74542;BME280;63015;45.378;20.360;2024-02-23T02:18:37;99844.63;;;8.66;62.52
74542;BME280;63015;45.378;20.360;2024-02-23T02:20:40;99841.13;;;8.65;62.63
74542;BME280;63015;45.378;20.360;2024-02-23T02:22:50;99830.78;;;8.59;62.57
74542;BME280;63015;45.378;20.360;2024-02-23T02:24:51;99848.94;;;8.64;62.56
74542;BME280;63015;45.378;20.360;2024-02-23T02:26:51;99842.88;;;8.66;62.33
74542;BME280;63015;45.378;20.360;2024-02-23T02:28:52;99838.56;;;8.62;62.46
74542;BME280;63015;45.378;20.360;2024-02-23T02:30:52;99828.16;;;8.62;62.47
74542;BME280;63015;45.378;20.360;2024-02-23T02:32:53;99822.97;;;8.56;62.30
74542;BME280;63015;45.378;20.360;2024-02-23T02:34:53;99829.88;;;8.66;62.27
74542;BME280;63015;45.378;20.360;2024-02-23T02:36:54;99822.13;;;8.62;62.05
74542;BME280;63015;45.378;20.360;2024-02-23T02:38:55;99835.09;;;8.66;61.93
74542;BME280;63015;45.378;20.360;2024-02-23T02:40:55;99831.63;;;8.67;61.97
74542;BME280;63015;45.378;20.360;2024-02-23T02:42:57;99832.47;;;8.66;61.69
74542;BME280;63015;45.378;20.360;2024-02-23T02:44:58;99829.88;;;8.68;61.67
74542;BME280;63015;45.378;20.360;2024-02-23T02:46:58;99812.56;;;8.64;61.57
74542;BME280;63015;45.378;20.360;2024-02-23T02:48:59;99819.47;;;8.68;61.57
74542;BME280;63015;45.378;20.360;2024-02-23T02:50:59;99818.63;;;8.69;61.59
74542;BME280;63015;45.378;20.360;2024-02-23T02:53:00;99822.09;;;8.69;61.55
74542;BME280;63015;45.378;20.360;2024-02-23T02:55:00;99819.50;;;8.65;61.64
74542;BME280;63015;45.378;20.360;2024-02-23T02:57:01;99825.56;;;8.68;61.26
74542;BME280;63015;45.378;20.360;2024-02-23T02:59:01;99826.41;;;8.69;61.19
74542;BME280;63015;45.378;20.360;2024-02-23T03:01:02;99822.09;;;8.72;61.19
74542;BME280;63015;45.378;20.360;2024-02-23T03:03:03;99822.97;;;8.68;60.97
74542;BME280;63015;45.378;20.360;2024-02-23T03:05:03;99822.09;;;8.66;60.97
74542;BME280;63015;45.378;20.360;2024-02-23T03:07:04;99825.56;;;8.67;60.91
74542;BME280;63015;45.378;20.360;2024-02-23T03:09:05;99831.59;;;8.74;60.67
74542;BME280;63015;45.378;20.360;2024-02-23T03:11:05;99824.69;;;8.68;60.82
74542;BME280;63015;45.378;20.360;2024-02-23T03:13:05;99834.19;;;8.70;61.02
74542;BME280;63015;45.378;20.360;2024-02-23T03:15:06;99816.91;;;8.63;60.98
74542;BME280;63015;45.378;20.360;2024-02-23T03:17:07;99818.63;;;8.74;60.60
74542;BME280;63015;45.378;20.360;2024-02-23T03:19:09;99816.91;;;8.71;60.71
74542;BME280;63015;45.378;20.360;2024-02-23T03:21:10;99807.38;;;8.68;60.87
74542;BME280;63015;45.378;20.360;2024-02-23T03:23:11;99809.09;;;8.66;60.70
74542;BME280;63015;45.378;20.360;2024-02-23T03:25:11;99805.66;;;8.67;60.37
74542;BME280;63015;45.378;20.360;2024-02-23T03:27:11;99813.41;;;8.75;59.89
74542;BME280;63015;45.378;20.360;2024-02-23T03:29:12;99817.72;;;8.79;59.60
74542;BME280;63015;45.378;20.360;2024-02-23T03:31:13;99820.31;;;8.81;59.36
74542;BME280;63015;45.378;20.360;2024-02-23T03:33:13;99817.75;;;8.78;59.27
74542;BME280;63015;45.378;20.360;2024-02-23T03:35:14;99823.78;;;8.78;59.27
74542;BME280;63015;45.378;20.360;2024-02-23T03:37:14;99818.56;;;8.84;58.97
74542;BME280;63015;45.378;20.360;2024-02-23T03:39:15;99818.59;;;8.83;58.94
74542;BME280;63015;45.378;20.360;2024-02-23T03:41:15;99808.16;;;8.86;58.83
74542;BME280;63015;45.378;20.360;2024-02-23T03:43:16;99803.00;;;8.87;58.69
74542;BME280;63015;45.378;20.360;2024-02-23T03:45:16;99806.47;;;8.85;58.77
74542;BME280;63015;45.378;20.360;2024-02-23T03:47:16;99800.41;;;8.77;58.83
74542;BME280;63015;45.378;20.360;2024-02-23T03:49:17;99809.06;;;8.82;58.78
74542;BME280;63015;45.378;20.360;2024-02-23T03:51:17;99795.22;;;8.81;58.60
74542;BME280;63015;45.378;20.360;2024-02-23T03:53:18;99802.97;;;8.84;58.71
74542;BME280;63015;45.378;20.360;2024-02-23T03:55:18;99791.75;;;8.84;58.53
74542;BME280;63015;45.378;20.360;2024-02-23T03:57:19;99786.56;;;8.82;58.23
74542;BME280;63015;45.378;20.360;2024-02-23T03:59:19;99793.47;;;8.86;58.19
74542;BME280;63015;45.378;20.360;2024-02-23T04:01:20;99799.50;;;8.90;57.90
74542;BME280;63015;45.378;20.360;2024-02-23T04:03:21;99799.50;;;8.88;57.77
74542;BME280;63015;45.378;20.360;2024-02-23T04:05:21;99800.34;;;8.95;57.23
74542;BME280;63015;45.378;20.360;2024-02-23T04:07:22;99799.50;;;8.90;57.62
74542;BME280;63015;45.378;20.360;2024-02-23T04:09:22;99802.94;;;8.97;57.34
74542;BME280;63015;45.378;20.360;2024-02-23T04:11:23;99809.00;;;8.96;57.16
74542;BME280;63015;45.378;20.360;2024-02-23T04:13:24;99805.56;;;8.95;57.42
74542;BME280;63015;45.378;20.360;2024-02-23T04:15:24;99798.63;;;8.91;57.18
74542;BME280;63015;45.378;20.360;2024-02-23T04:17:25;99800.38;;;8.84;57.01
74542;BME280;63015;45.378;20.360;2024-02-23T04:19:25;99807.28;;;8.98;56.87
74542;BME280;63015;45.378;20.360;2024-02-23T04:21:26;99810.72;;;8.98;57.01
74542;BME280;63015;45.378;20.360;2024-02-23T04:23:26;99798.63;;;8.94;56.92
74542;BME280;63015;45.378;20.360;2024-02-23T04:25:27;99804.66;;;8.96;56.94
74542;BME280;63015;45.378;20.360;2024-02-23T04:27:27;99806.41;;;8.97;56.82
74542;BME280;63015;45.378;20.360;2024-02-23T04:29:28;99788.22;;;8.94;56.71
74542;BME280;63015;45.378;20.360;2024-02-23T04:31:28;99788.25;;;8.93;56.67
74542;BME280;63015;45.378;20.360;2024-02-23T04:33:29;99793.38;;;9.03;56.38
74542;BME280;63015;45.378;20.360;2024-02-23T04:35:29;99807.22;;;9.04;56.43
74542;BME280;63015;45.378;20.360;2024-02-23T04:37:30;99804.66;;;9.05;56.37
74542;BME280;63015;45.378;20.360;2024-02-23T04:39:30;99807.22;;;9.07;56.29
74542;BME280;63015;45.378;20.360;2024-02-23T04:41:30;99802.03;;;9.09;56.11
74542;BME280;63015;45.378;20.360;2024-02-23T04:43:31;99801.16;;;9.11;55.74
74542;BME280;63015;45.378;20.360;2024-02-23T04:45:32;99797.66;;;9.09;55.54
74542;BME280;63015;45.378;20.360;2024-02-23T04:47:33;99800.25;;;9.14;55.58
74542;BME280;63015;45.378;20.360;2024-02-23T04:49:33;99801.13;;;9.14;55.38
74542;BME280;63015;45.378;20.360;2024-02-23T04:51:33;99800.25;;;9.14;55.22
74542;BME280;63015;45.378;20.360;2024-02-23T04:53:36;99795.06;;;9.14;55.30
74542;BME280;63015;45.378;20.360;2024-02-23T04:55:37;99805.50;;;9.11;55.21
74542;BME280;63015;45.378;20.360;2024-02-23T04:57:38;99786.41;;;9.09;55.39
74542;BME280;63015;45.378;20.360;2024-02-23T04:59:39;99798.50;;;9.14;55.34
74542;BME280;63015;45.378;20.360;2024-02-23T05:01:39;99802.88;;;9.12;55.25
74542;BME280;63015;45.378;20.360;2024-02-23T05:03:40;99806.34;;;9.11;55.14
74542;BME280;63015;45.378;20.360;2024-02-23T05:05:40;99808.09;;;9.11;55.15
74542;BME280;63015;45.378;20.360;2024-02-23T05:07:41;99808.09;;;9.06;55.33
74542;BME280;63015;45.378;20.360;2024-02-23T05:09:41;99795.97;;;9.03;55.41
74542;BME280;63015;45.378;20.360;2024-02-23T05:11:42;99806.38;;;9.03;55.35
74542;BME280;63015;45.378;20.360;2024-02-23T05:13:43;99809.84;;;9.02;55.51
74542;BME280;63015;45.378;20.360;2024-02-23T05:15:43;99802.91;;;9.04;55.68
74542;BME280;63015;45.378;20.360;2024-02-23T05:17:44;99806.41;;;9.00;55.51
74542;BME280;63015;45.378;20.360;2024-02-23T05:19:44;99810.72;;;9.00;55.66
74542;BME280;63015;45.378;20.360;2024-02-23T05:21:46;99809.00;;;9.00;55.84
74542;BME280;63015;45.378;20.360;2024-02-23T05:23:47;99815.94;;;8.98;55.68
74542;BME280;63015;45.378;20.360;2024-02-23T05:25:47;99807.28;;;8.98;55.86
74542;BME280;63015;45.378;20.360;2024-02-23T05:27:48;99815.94;;;8.97;55.79
74542;BME280;63015;45.378;20.360;2024-02-23T05:29:48;99809.03;;;8.94;55.86
74542;BME280;63015;45.378;20.360;2024-02-23T05:31:52;99809.03;;;8.94;56.12
74542;BME280;63015;45.378;20.360;2024-02-23T05:33:53;99814.22;;;8.91;56.37
74542;BME280;63015;45.378;20.360;2024-02-23T05:35:53;99810.78;;;8.87;56.25
74542;BME280;63015;45.378;20.360;2024-02-23T05:37:54;99809.03;;;8.89;56.26
74542;BME280;63015;45.378;20.360;2024-02-23T05:39:55;99803.88;;;8.85;56.20
74542;BME280;63015;45.378;20.360;2024-02-23T05:41:55;99817.69;;;8.90;56.36
74542;BME280;63015;45.378;20.360;2024-02-23T05:43:57;99815.09;;;8.93;55.98
74542;BME280;63015;45.378;20.360;2024-02-23T05:45:57;99825.47;;;8.95;56.06
74542;BME280;63015;45.378;20.360;2024-02-23T05:47:58;99821.16;;;8.86;56.11
74542;BME280;63015;45.378;20.360;2024-02-23T05:49:59;99822.03;;;8.93;55.84
74542;BME280;63015;45.378;20.360;2024-02-23T05:51:59;99833.28;;;8.87;55.90
74542;BME280;63015;45.378;20.360;2024-02-23T05:54:00;99822.06;;;8.77;56.24
74542;BME280;63015;45.378;20.360;2024-02-23T05:56:01;99827.22;;;8.93;56.01
74542;BME280;63015;45.378;20.360;2024-02-23T05:58:01;99828.94;;;8.91;56.20
74542;BME280;63015;45.378;20.360;2024-02-23T06:00:02;99831.56;;;8.91;56.06
74542;BME280;63015;45.378;20.360;2024-02-23T06:02:11;99835.91;;;8.90;56.21
74542;BME280;63015;45.378;20.360;2024-02-23T06:04:12;99834.16;;;8.91;56.05
74542;BME280;63015;45.378;20.360;2024-02-23T06:06:12;99838.50;;;8.85;56.22
74542;BME280;63015;45.378;20.360;2024-02-23T06:08:13;99832.41;;;8.91;56.42
74542;BME280;63015;45.378;20.360;2024-02-23T06:10:13;99835.00;;;8.89;56.35
74542;BME280;63015;45.378;20.360;2024-02-23T06:12:14;99844.56;;;8.89;56.40
74542;BME280;63015;45.378;20.360;2024-02-23T06:14:14;99844.56;;;8.84;56.35
74542;BME280;63015;45.378;20.360;2024-02-23T06:16:15;99850.63;;;8.88;56.29
74542;BME280;63015;45.378;20.360;2024-02-23T06:18:16;99859.28;;;8.92;56.56
74542;BME280;63015;45.378;20.360;2024-02-23T06:20:16;99862.72;;;8.92;56.50
74542;BME280;63015;45.378;20.360;2024-02-23T06:22:17;99867.06;;;8.93;56.51
74542;BME280;63015;45.378;20.360;2024-02-23T06:24:21;99870.50;;;8.92;56.51
74542;BME280;63015;45.378;20.360;2024-02-23T06:26:21;99852.34;;;8.87;56.65
74542;BME280;63015;45.378;20.360;2024-02-23T06:28:22;99863.56;;;8.97;56.74
74542;BME280;63015;45.378;20.360;2024-02-23T06:30:22;99874.84;;;8.99;56.85
74542;BME280;63015;45.378;20.360;2024-02-23T06:32:23;99869.63;;;9.05;57.38
74542;BME280;63015;45.378;20.360;2024-02-23T06:34:23;99871.34;;;9.08;57.47
74542;BME280;63015;45.378;20.360;2024-02-23T06:36:24;99873.06;;;9.11;57.72
74542;BME280;63015;45.378;20.360;2024-02-23T06:38:24;99873.03;;;9.14;57.98
74542;BME280;63015;45.378;20.360;2024-02-23T06:40:25;99879.13;;;9.16;58.12
74542;BME280;63015;45.378;20.360;2024-02-23T06:42:25;99872.16;;;9.21;58.06
74542;BME280;63015;45.378;20.360;2024-02-23T06:44:26;99875.59;;;9.25;58.32
74542;BME280;63015;45.378;20.360;2024-02-23T06:46:26;99866.91;;;9.32;58.18
74542;BME280;63015;45.378;20.360;2024-02-23T06:48:27;99878.13;;;9.40;57.96
74542;BME280;63015;45.378;20.360;2024-02-23T06:50:27;99861.66;;;9.44;57.69
74542;BME280;63015;45.378;20.360;2024-02-23T06:52:28;99872.03;;;9.52;57.58
74542;BME280;63015;45.378;20.360;2024-02-23T06:54:29;99870.22;;;9.60;57.20
74542;BME280;63015;45.378;20.360;2024-02-23T06:56:29;99867.59;;;9.66;57.15
74542;BME280;63015;45.378;20.360;2024-02-23T06:58:30;99868.47;;;9.65;56.65
74542;BME280;63015;45.378;20.360;2024-02-23T07:00:30;99865.84;;;9.70;56.75
74542;BME280;63015;45.378;20.360;2024-02-23T07:02:31;99865.81;;;9.71;56.26
74542;BME280;63015;45.378;20.360;2024-02-23T07:04:34;99861.47;;;9.75;56.23
74542;BME280;63015;45.378;20.360;2024-02-23T07:06:35;99873.53;;;9.84;56.18
74542;BME280;63015;45.378;20.360;2024-02-23T07:08:36;99872.63;;;9.91;55.76
74542;BME280;63015;45.378;20.360;2024-02-23T07:10:37;99866.56;;;9.91;55.68
74542;BME280;63015;45.378;20.360;2024-02-23T07:12:37;99868.25;;;9.98;55.33
74542;BME280;63015;45.378;20.360;2024-02-23T07:14:38;99878.63;;;10.02;55.04
74542;BME280;63015;45.378;20.360;2024-02-23T07:16:38;99887.34;;;9.98;55.38
74542;BME280;63015;45.378;20.360;2024-02-23T07:18:42;99876.91;;;10.01;54.88
74542;BME280;63015;45.378;20.360;2024-02-23T07:20:42;99871.66;;;10.08;54.83
74542;BME280;63015;45.378;20.360;2024-02-23T07:22:46;99870.84;;;10.01;54.84
74542;BME280;63015;45.378;20.360;2024-02-23T07:24:47;99880.34;;;10.02;55.04
74542;BME280;63015;45.378;20.360;2024-02-23T07:26:47;99884.69;;;10.03;55.02
74542;BME280;63015;45.378;20.360;2024-02-23T07:28:48;99876.91;;;9.97;55.26
74542;BME280;63015;45.378;20.360;2024-02-23T07:30:49;99887.28;;;10.08;55.38
74542;BME280;63015;45.378;20.360;2024-02-23T07:32:50;99888.13;;;10.07;55.48
74542;BME280;63015;45.378;20.360;2024-02-23T07:34:50;99880.34;;;10.05;54.98
74542;BME280;63015;45.378;20.360;2024-02-23T07:36:51;99889.84;;;10.09;55.04
74542;BME280;63015;45.378;20.360;2024-02-23T07:38:52;99886.38;;;10.10;54.78
74542;BME280;63015;45.378;20.360;2024-02-23T07:40:52;99888.03;;;10.17;55.08
74542;BME280;63015;45.378;20.360;2024-02-23T07:42:53;99885.50;;;10.10;54.85
74542;BME280;63015;45.378;20.360;2024-02-23T07:44:53;99884.59;;;10.17;54.71
74542;BME280;63015;45.378;20.360;2024-02-23T07:46:54;99883.72;;;10.18;55.10
74542;BME280;63015;45.378;20.360;2024-02-23T07:48:55;99875.03;;;10.19;55.13
74542;BME280;63015;45.378;20.360;2024-02-23T07:50:56;99873.31;;;10.15;54.82
74542;BME280;63015;45.378;20.360;2024-02-23T07:52:56;99871.56;;;10.17;54.90
74542;BME280;63015;45.378;20.360;2024-02-23T07:54:57;99872.34;;;10.28;55.23
74542;BME280;63015;45.378;20.360;2024-02-23T07:56:57;99858.44;;;10.28;54.67
74542;BME280;63015;45.378;20.360;2024-02-23T07:58:58;99861.91;;;10.31;54.82
74542;BME280;63015;45.378;20.360;2024-02-23T08:00:58;99851.47;;;10.31;54.99
74542;BME280;63015;45.378;20.360;2024-02-23T08:02:59;99863.56;;;10.42;54.28
74542;BME280;63015;45.378;20.360;2024-02-23T08:05:00;99862.75;;;10.40;54.30
74542;BME280;63015;45.378;20.360;2024-02-23T08:07:01;99858.34;;;10.42;54.45
74542;BME280;63015;45.378;20.360;2024-02-23T08:09:01;99866.16;;;10.45;54.30
74542;BME280;63015;45.378;20.360;2024-02-23T08:11:03;99868.75;;;10.46;54.42
74542;BME280;63015;45.378;20.360;2024-02-23T08:13:04;99867.00;;;10.47;54.39
74542;BME280;63015;45.378;20.360;2024-02-23T08:15:05;99873.88;;;10.56;54.41
74542;BME280;63015;45.378;20.360;2024-02-23T08:17:06;99869.56;;;10.53;54.17
74542;BME280;63015;45.378;20.360;2024-02-23T08:19:06;99869.47;;;10.61;54.53
74542;BME280;63015;45.378;20.360;2024-02-23T08:21:07;99861.63;;;10.62;54.45
74542;BME280;63015;45.378;20.360;2024-02-23T08:23:07;99868.53;;;10.68;54.18
74542;BME280;63015;45.378;20.360;2024-02-23T08:25:09;99850.22;;;10.73;54.51
74542;BME280;63015;45.378;20.360;2024-02-23T08:27:10;99854.56;;;10.75;54.00
74542;BME280;63015;45.378;20.360;2024-02-23T08:29:10;99856.25;;;10.78;54.33
74542;BME280;63015;45.378;20.360;2024-02-23T08:31:11;99852.81;;;10.77;54.47
74542;BME280;63015;45.378;20.360;2024-02-23T08:33:11;99852.69;;;10.86;54.39
74542;BME280;63015;45.378;20.360;2024-02-23T08:35:12;99857.09;;;10.84;54.62
74542;BME280;63015;45.378;20.360;2024-02-23T08:37:12;99858.66;;;10.98;54.36
74542;BME280;63015;45.378;20.360;2024-02-23T08:39:13;99861.94;;;11.14;54.04
74542;BME280;63015;45.378;20.360;2024-02-23T08:41:13;99854.97;;;11.16;53.84
74542;BME280;63015;45.378;20.360;2024-02-23T08:43:15;99864.41;;;11.26;53.69
74542;BME280;63015;45.378;20.360;2024-02-23T08:45:15;99847.78;;;11.35;53.78
74542;BME280;63015;45.378;20.360;2024-02-23T08:47:16;99850.25;;;11.44;53.08
74542;BME280;63015;45.378;20.360;2024-02-23T08:49:17;99856.06;;;11.65;53.47
74542;BME280;63015;45.378;20.360;2024-02-23T08:51:17;99848.09;;;11.73;52.72
74542;BME280;63015;45.378;20.360;2024-02-23T08:53:18;99848.63;;;11.95;52.71
74542;BME280;63015;45.378;20.360;2024-02-23T08:55:18;99846.63;;;12.14;52.41
74542;BME280;63015;45.378;20.360;2024-02-23T08:57:19;99845.22;;;12.46;52.02
74542;BME280;63015;45.378;20.360;2024-02-23T08:59:20;99843.13;;;12.65;51.23
74542;BME280;63015;45.378;20.360;2024-02-23T09:01:20;99841.88;;;12.85;50.90
74542;BME280;63015;45.378;20.360;2024-02-23T09:03:21;99836.31;;;13.02;50.60
74542;BME280;63015;45.378;20.360;2024-02-23T09:05:21;99842.44;;;13.00;50.00
74542;BME280;63015;45.378;20.360;2024-02-23T09:07:22;99848.28;;;13.13;50.09
74542;BME280;63015;45.378;20.360;2024-02-23T09:09:22;99854.56;;;13.05;49.21
74542;BME280;63015;45.378;20.360;2024-02-23T09:11:23;99852.81;;;13.05;49.29
74542;BME280;63015;45.378;20.360;2024-02-23T09:13:23;99848.31;;;13.12;49.59
74542;BME280;63015;45.378;20.360;2024-02-23T09:15:24;99843.13;;;13.10;49.71
74542;BME280;63015;45.378;20.360;2024-02-23T09:17:24;99844.59;;;13.22;49.44
74542;BME280;63015;45.378;20.360;2024-02-23T09:19:25;99846.50;;;13.15;48.79
74542;BME280;63015;45.378;20.360;2024-02-23T09:21:26;99845.69;;;13.12;49.06
74542;BME280;63015;45.378;20.360;2024-02-23T09:23:26;99838.72;;;13.11;48.61
74542;BME280;63015;45.378;20.360;2024-02-23T09:25:27;99849.06;;;13.17;48.83
74542;BME280;63015;45.378;20.360;2024-02-23T09:27:27;99844.69;;;13.18;49.41
74542;BME280;63015;45.378;20.360;2024-02-23T09:29:28;99843.03;;;13.13;49.14
74542;BME280;63015;45.378;20.360;2024-02-23T09:31:28;99836.84;;;13.19;49.59
74542;BME280;63015;45.378;20.360;2024-02-23T09:33:30;99841.03;;;13.26;49.89
74542;BME280;63015;45.378;20.360;2024-02-23T09:35:31;99825.56;;;13.15;49.44
74542;BME280;63015;45.378;20.360;2024-02-23T09:37:31;99839.34;;;13.24;49.75
74542;BME280;63015;45.378;20.360;2024-02-23T09:39:32;99837.34;;;13.38;49.83
74542;BME280;63015;45.378;20.360;2024-02-23T09:41:32;99833.00;;;13.37;49.57
74542;BME280;63015;45.378;20.360;2024-02-23T09:43:34;99826.88;;;13.35;49.47
74542;BME280;63015;45.378;20.360;2024-02-23T09:45:35;99821.78;;;13.29;49.53
74542;BME280;63015;45.378;20.360;2024-02-23T09:47:35;99826.88;;;13.35;49.61
74542;BME280;63015;45.378;20.360;2024-02-23T09:49:38;99829.50;;;13.37;49.61
74542;BME280;63015;45.378;20.360;2024-02-23T09:51:39;99823.34;;;13.39;49.42
74542;BME280;63015;45.378;20.360;2024-02-23T09:53:41;99822.50;;;13.39;49.27
74542;BME280;63015;45.378;20.360;2024-02-23T09:55:43;99820.47;;;13.52;49.33
74542;BME280;63015;45.378;20.360;2024-02-23T09:57:47;99830.88;;;13.53;49.78
74542;BME280;63015;45.378;20.360;2024-02-23T09:59:48;99817.75;;;13.55;49.64
74542;BME280;63015;45.378;20.360;2024-02-23T10:01:50;99815.00;;;13.61;49.45
74542;BME280;63015;45.378;20.360;2024-02-23T10:03:56;99812.34;;;13.64;49.65
74542;BME280;63015;45.378;20.360;2024-02-23T10:05:57;99818.19;;;13.74;49.79
74542;BME280;63015;45.378;20.360;2024-02-23T10:07:58;99815.63;;;13.72;49.03
74542;BME280;63015;45.378;20.360;2024-02-23T10:09:59;99822.53;;;13.75;48.57
74542;BME280;63015;45.378;20.360;2024-02-23T10:11:59;99812.78;;;13.81;48.81
74542;BME280;63015;45.378;20.360;2024-02-23T10:13:59;99822.41;;;13.81;48.62
74542;BME280;63015;45.378;20.360;2024-02-23T10:16:00;99818.16;;;13.75;48.76
74542;BME280;63015;45.378;20.360;2024-02-23T10:18:00;99819.03;;;13.76;48.79
74542;BME280;63015;45.378;20.360;2024-02-23T10:20:01;99811.47;;;13.63;48.88
74542;BME280;63015;45.378;20.360;2024-02-23T10:22:04;99809.50;;;13.73;48.78
74542;BME280;63015;45.378;20.360;2024-02-23T10:24:05;99812.81;;;13.80;49.07
74542;BME280;63015;45.378;20.360;2024-02-23T10:26:06;99814.66;;;13.76;48.84
74542;BME280;63015;45.378;20.360;2024-02-23T10:28:07;99816.34;;;13.79;48.95
74542;BME280;63015;45.378;20.360;2024-02-23T10:30:09;99816.41;;;13.76;49.30
74542;BME280;63015;45.378;20.360;2024-02-23T10:32:14;99819.97;;;13.73;48.81
74542;BME280;63015;45.378;20.360;2024-02-23T10:34:19;99809.59;;;13.69;49.30
74542;BME280;63015;45.378;20.360;2024-02-23T10:36:19;99814.97;;;13.62;49.19
74542;BME280;63015;45.378;20.360;2024-02-23T10:38:23;99814.19;;;13.59;48.93